sensor_id;sensor_type;location;lat;lon;timestamp;pressure;altitude;pressure_sealevel;temperature;humidity
55604;BME280;41468;48.838;9.330;2022-08-01T00:02:13;98310.13;;;21.73;50.03
55604;BME280;41468;48.838;9.330;2022-08-01T00:04:43;98307.72;;;21.62;50.26
55604;BME280;41468;48.838;9.330;2022-08-01T00:07:13;98311.06;;;21.57;50.33
55604;BME280;41468;48.838;9.330;2022-08-01T00:09:45;98304.63;;;21.47;50.93
55604;BME280;41468;48.838;9.330;2022-08-01T00:12:15;98312.41;;;21.40;51.10
55604;BME280;41468;48.838;9.330;2022-08-01T00:14:45;98307.84;;;21.46;50.55
55604;BME280;41468;48.838;9.330;2022-08-01T00:17:15;98311.09;;;21.44;50.85
55604;BME280;41468;48.838;9.330;2022-08-01T00:19:45;98312.75;;;21.42;50.94
55604;BME280;41468;48.838;9.330;2022-08-01T00:22:14;98312.63;;;21.45;50.84
55604;BME280;41468;48.838;9.330;2022-08-01T00:24:47;98322.63;;;21.56;50.83
55604;BME280;41468;48.838;9.330;2022-08-01T00:27:17;98325.78;;;21.32;51.97
55604;BME280;41468;48.838;9.330;2022-08-01T00:29:46;98321.09;;;21.42;51.57
55604;BME280;41468;48.838;9.330;2022-08-01T00:32:36;98318.66;;;21.31;51.61
55604;BME280;41468;48.838;9.330;2022-08-01T00:35:07;98325.34;;;21.21;51.89
55604;BME280;41468;48.838;9.330;2022-08-01T00:37:36;98322.56;;;21.34;51.26
55604;BME280;41468;48.838;9.330;2022-08-01T00:40:10;98317.78;;;21.09;52.40
55604;BME280;41468;48.838;9.330;2022-08-01T00:42:39;98320.84;;;21.11;52.38
55604;BME280;41468;48.838;9.330;2022-08-01T00:45:10;98333.66;;;21.08;52.36
55604;BME280;41468;48.838;9.330;2022-08-01T00:47:40;98332.44;;;20.96;52.66
55604;BME280;41468;48.838;9.330;2022-08-01T00:50:10;98326.84;;;20.83;53.22
55604;BME280;41468;48.838;9.330;2022-08-01T00:52:41;98328.19;;;20.92;53.58
55604;BME280;41468;48.838;9.330;2022-08-01T00:55:20;98330.88;;;20.95;53.47
55604;BME280;41468;48.838;9.330;2022-08-01T00:57:50;98336.19;;;21.02;52.95
55604;BME280;41468;48.838;9.330;2022-08-01T01:00:33;98329.66;;;20.96;53.28
55604;BME280;41468;48.838;9.330;2022-08-01T01:03:20;98337.44;;;21.01;53.22
55604;BME280;41468;48.838;9.330;2022-08-01T01:06:19;98335.19;;;20.83;54.81
55604;BME280;41468;48.838;9.330;2022-08-01T01:09:02;98336.53;;;20.79;54.39
55604;BME280;41468;48.838;9.330;2022-08-01T01:11:41;98337.09;;;20.74;54.90
55604;BME280;41468;48.838;9.330;2022-08-01T01:14:21;98333.69;;;20.53;55.41
55604;BME280;41468;48.838;9.330;2022-08-01T01:16:53;98343.47;;;20.45;56.05
55604;BME280;41468;48.838;9.330;2022-08-01T01:19:24;98340.00;;;20.41;55.88
55604;BME280;41468;48.838;9.330;2022-08-01T01:22:13;98339.56;;;20.43;56.39
55604;BME280;41468;48.838;9.330;2022-08-01T01:24:58;98339.28;;;20.37;56.78
55604;BME280;41468;48.838;9.330;2022-08-01T01:27:48;98343.16;;;20.27;56.96
55604;BME280;41468;48.838;9.330;2022-08-01T01:30:23;98341.44;;;20.16;56.99
55604;BME280;41468;48.838;9.330;2022-08-01T01:32:57;98339.69;;;20.23;56.96
55604;BME280;41468;48.838;9.330;2022-08-01T01:35:31;98339.66;;;20.10;58.05
55604;BME280;41468;48.838;9.330;2022-08-01T01:38:05;98341.19;;;20.11;57.79
55604;BME280;41468;48.838;9.330;2022-08-01T01:40:37;98333.22;;;20.13;57.59
55604;BME280;41468;48.838;9.330;2022-08-01T01:43:10;98345.47;;;19.99;58.67
55604;BME280;41468;48.838;9.330;2022-08-01T01:45:44;98345.28;;;20.06;57.48
55604;BME280;41468;48.838;9.330;2022-08-01T01:48:19;98336.53;;;20.08;57.77
55604;BME280;41468;48.838;9.330;2022-08-01T01:50:52;98351.81;;;20.00;58.87
55604;BME280;41468;48.838;9.330;2022-08-01T01:53:24;98352.06;;;20.05;58.36
55604;BME280;41468;48.838;9.330;2022-08-01T01:55:57;98353.59;;;20.06;58.04
55604;BME280;41468;48.838;9.330;2022-08-01T01:58:29;98354.66;;;20.12;57.66
55604;BME280;41468;48.838;9.330;2022-08-01T02:01:04;98360.25;;;19.96;58.57
55604;BME280;41468;48.838;9.330;2022-08-01T02:03:41;98352.84;;;19.89;58.72
55604;BME280;41468;48.838;9.330;2022-08-01T02:06:14;98348.69;;;19.98;58.33
55604;BME280;41468;48.838;9.330;2022-08-01T02:08:46;98348.59;;;20.01;58.71
55604;BME280;41468;48.838;9.330;2022-08-01T02:11:18;98344.47;;;19.93;59.03
55604;BME280;41468;48.838;9.330;2022-08-01T02:13:53;98348.78;;;19.94;59.39
55604;BME280;41468;48.838;9.330;2022-08-01T02:16:29;98343.09;;;19.85;59.95
55604;BME280;41468;48.838;9.330;2022-08-01T02:19:02;98350.00;;;19.77;59.93
55604;BME280;41468;48.838;9.330;2022-08-01T02:21:38;98349.59;;;19.62;61.41
55604;BME280;41468;48.838;9.330;2022-08-01T02:24:12;98346.41;;;19.63;60.56
55604;BME280;41468;48.838;9.330;2022-08-01T02:26:47;98350.03;;;19.60;61.28
55604;BME280;41468;48.838;9.330;2022-08-01T02:29:22;98350.63;;;19.68;60.51
55604;BME280;41468;48.838;9.330;2022-08-01T02:31:56;98358.88;;;19.71;60.84
55604;BME280;41468;48.838;9.330;2022-08-01T02:34:29;98356.25;;;19.81;60.07
55604;BME280;41468;48.838;9.330;2022-08-01T02:37:00;98355.41;;;19.67;61.56
55604;BME280;41468;48.838;9.330;2022-08-01T02:39:36;98363.91;;;19.60;61.32
55604;BME280;41468;48.838;9.330;2022-08-01T02:42:08;98361.34;;;19.49;62.21
55604;BME280;41468;48.838;9.330;2022-08-01T02:44:42;98364.75;;;19.57;61.18
55604;BME280;41468;48.838;9.330;2022-08-01T02:47:16;98358.66;;;19.46;62.50
55604;BME280;41468;48.838;9.330;2022-08-01T02:49:50;98368.22;;;19.45;61.53
55604;BME280;41468;48.838;9.330;2022-08-01T02:52:24;98363.69;;;19.51;61.50
55604;BME280;41468;48.838;9.330;2022-08-01T02:54:56;98368.94;;;19.65;61.06
55604;BME280;41468;48.838;9.330;2022-08-01T02:57:28;98369.44;;;19.60;61.92
55604;BME280;41468;48.838;9.330;2022-08-01T03:00:17;98377.41;;;19.42;63.19
55604;BME280;41468;48.838;9.330;2022-08-01T03:02:53;98372.53;;;19.29;63.78
55604;BME280;41468;48.838;9.330;2022-08-01T03:05:25;98376.81;;;19.14;64.31
55604;BME280;41468;48.838;9.330;2022-08-01T03:07:56;98384.25;;;19.37;62.77
55604;BME280;41468;48.838;9.330;2022-08-01T03:10:30;98371.25;;;19.34;62.88
55604;BME280;41468;48.838;9.330;2022-08-01T03:13:03;98383.09;;;19.18;65.02
55604;BME280;41468;48.838;9.330;2022-08-01T03:15:37;98375.66;;;19.32;63.30
55604;BME280;41468;48.838;9.330;2022-08-01T03:18:12;98368.28;;;19.41;62.63
55604;BME280;41468;48.838;9.330;2022-08-01T03:20:43;98375.97;;;19.17;64.32
55604;BME280;41468;48.838;9.330;2022-08-01T03:23:15;98375.78;;;19.08;65.29
55604;BME280;41468;48.838;9.330;2022-08-01T03:25:50;98377.19;;;19.16;64.56
55604;BME280;41468;48.838;9.330;2022-08-01T03:28:22;98380.56;;;19.24;63.90
55604;BME280;41468;48.838;9.330;2022-08-01T03:30:55;98379.25;;;19.12;64.96
55604;BME280;41468;48.838;9.330;2022-08-01T03:33:29;98381.69;;;19.10;65.36
55604;BME280;41468;48.838;9.330;2022-08-01T03:36:00;98385.59;;;19.13;64.56
55604;BME280;41468;48.838;9.330;2022-08-01T03:38:33;98392.16;;;19.02;65.72
55604;BME280;41468;48.838;9.330;2022-08-01T03:41:08;98392.91;;;19.03;65.49
55604;BME280;41468;48.838;9.330;2022-08-01T03:43:46;98380.09;;;19.09;64.40
55604;BME280;41468;48.838;9.330;2022-08-01T03:46:19;98389.22;;;19.10;65.06
55604;BME280;41468;48.838;9.330;2022-08-01T03:48:55;98385.50;;;19.16;64.41
55604;BME280;41468;48.838;9.330;2022-08-01T03:51:29;98388.09;;;19.07;65.30
55604;BME280;41468;48.838;9.330;2022-08-01T03:54:01;98380.78;;;18.97;66.39
55604;BME280;41468;48.838;9.330;2022-08-01T03:56:32;98383.84;;;18.82;67.19
55604;BME280;41468;48.838;9.330;2022-08-01T03:59:04;98383.44;;;18.84;67.89
55604;BME280;41468;48.838;9.330;2022-08-01T04:01:34;98387.84;;;18.81;67.38
55604;BME280;41468;48.838;9.330;2022-08-01T04:04:08;98390.09;;;18.86;67.18
55604;BME280;41468;48.838;9.330;2022-08-01T04:06:38;98389.97;;;18.94;66.12
55604;BME280;41468;48.838;9.330;2022-08-01T04:09:11;98387.38;;;19.03;66.54
55604;BME280;41468;48.838;9.330;2022-08-01T04:11:41;98390.56;;;19.01;66.33
55604;BME280;41468;48.838;9.330;2022-08-01T04:14:11;98389.47;;;18.99;66.24
55604;BME280;41468;48.838;9.330;2022-08-01T04:16:41;98395.19;;;19.08;66.64
55604;BME280;41468;48.838;9.330;2022-08-01T04:19:14;98398.31;;;19.10;66.60
55604;BME280;41468;48.838;9.330;2022-08-01T04:21:44;98392.22;;;18.99;67.66
55604;BME280;41468;48.838;9.330;2022-08-01T04:24:17;98404.16;;;18.96;67.85
55604;BME280;41468;48.838;9.330;2022-08-01T04:26:49;98401.00;;;18.77;68.13
55604;BME280;41468;48.838;9.330;2022-08-01T04:29:22;98404.94;;;18.96;67.57
55604;BME280;41468;48.838;9.330;2022-08-01T04:31:54;98406.50;;;18.97;68.79
55604;BME280;41468;48.838;9.330;2022-08-01T04:34:30;98410.91;;;18.95;68.14
55604;BME280;41468;48.838;9.330;2022-08-01T04:37:02;98411.09;;;19.04;68.22
55604;BME280;41468;48.838;9.330;2022-08-01T04:39:34;98405.56;;;19.04;68.26
55604;BME280;41468;48.838;9.330;2022-08-01T04:42:17;98410.78;;;19.02;69.20
55604;BME280;41468;48.838;9.330;2022-08-01T04:44:51;98410.09;;;19.14;68.71
55604;BME280;41468;48.838;9.330;2022-08-01T04:47:22;98407.59;;;19.20;67.94
55604;BME280;41468;48.838;9.330;2022-08-01T04:49:54;98410.63;;;19.25;67.42
55604;BME280;41468;48.838;9.330;2022-08-01T04:52:32;98418.44;;;19.30;68.00
55604;BME280;41468;48.838;9.330;2022-08-01T04:55:03;98413.59;;;19.35;68.33
55604;BME280;41468;48.838;9.330;2022-08-01T04:57:34;98411.19;;;19.37;68.60
55604;BME280;41468;48.838;9.330;2022-08-01T05:00:07;98407.91;;;19.42;68.36
55604;BME280;41468;48.838;9.330;2022-08-01T05:02:37;98405.31;;;19.51;67.75
55604;BME280;41468;48.838;9.330;2022-08-01T05:05:09;98402.47;;;19.55;68.72
55604;BME280;41468;48.838;9.330;2022-08-01T05:07:39;98394.41;;;19.60;69.17
55604;BME280;41468;48.838;9.330;2022-08-01T05:10:11;98402.06;;;19.72;66.70
55604;BME280;41468;48.838;9.330;2022-08-01T05:12:40;98401.38;;;19.85;69.22
55604;BME280;41468;48.838;9.330;2022-08-01T05:15:10;98392.84;;;19.92;67.36
55604;BME280;41468;48.838;9.330;2022-08-01T05:17:41;98400.91;;;20.03;67.85
55604;BME280;41468;48.838;9.330;2022-08-01T05:20:14;98395.75;;;20.17;66.14
55604;BME280;41468;48.838;9.330;2022-08-01T05:22:43;98397.63;;;20.37;65.94
55604;BME280;41468;48.838;9.330;2022-08-01T05:25:13;98396.38;;;20.54;66.69
55604;BME280;41468;48.838;9.330;2022-08-01T05:27:54;98396.03;;;20.52;65.69
55604;BME280;41468;48.838;9.330;2022-08-01T05:30:25;98393.66;;;20.80;66.71
55604;BME280;41468;48.838;9.330;2022-08-01T05:32:55;98394.25;;;21.13;63.19
55604;BME280;41468;48.838;9.330;2022-08-01T05:35:27;98396.03;;;21.97;60.01
55604;BME280;41468;48.838;9.330;2022-08-01T05:38:14;98401.38;;;23.05;57.42
55604;BME280;41468;48.838;9.330;2022-08-01T05:40:44;98399.25;;;24.82;53.01
55604;BME280;41468;48.838;9.330;2022-08-01T05:43:14;98401.81;;;26.22;49.92
55604;BME280;41468;48.838;9.330;2022-08-01T05:45:43;98403.00;;;27.43;46.66
55604;BME280;41468;48.838;9.330;2022-08-01T05:48:14;98409.59;;;28.11;44.52
55604;BME280;41468;48.838;9.330;2022-08-01T05:50:46;98416.50;;;27.59;45.11
55604;BME280;41468;48.838;9.330;2022-08-01T05:53:22;98411.91;;;27.27;45.90
55604;BME280;41468;48.838;9.330;2022-08-01T05:55:52;98414.94;;;26.69;46.97
55604;BME280;41468;48.838;9.330;2022-08-01T05:58:22;98417.50;;;25.71;49.39
55604;BME280;41468;48.838;9.330;2022-08-01T06:00:51;98419.16;;;24.93;51.74
55604;BME280;41468;48.838;9.330;2022-08-01T06:03:21;98423.69;;;24.53;54.12
55604;BME280;41468;48.838;9.330;2022-08-01T06:05:53;98417.47;;;24.49;53.92
55604;BME280;41468;48.838;9.330;2022-08-01T06:08:23;98419.63;;;24.36;54.49
55604;BME280;41468;48.838;9.330;2022-08-01T06:10:53;98415.38;;;24.04;55.15
55604;BME280;41468;48.838;9.330;2022-08-01T06:13:23;98423.03;;;24.12;55.41
55604;BME280;41468;48.838;9.330;2022-08-01T06:15:53;98415.94;;;24.39;55.11
55604;BME280;41468;48.838;9.330;2022-08-01T06:18:22;98419.97;;;24.47;54.93
55604;BME280;41468;48.838;9.330;2022-08-01T06:20:54;98427.25;;;24.35;54.78
55604;BME280;41468;48.838;9.330;2022-08-01T06:23:24;98425.03;;;24.12;55.64
55604;BME280;41468;48.838;9.330;2022-08-01T06:25:58;98420.34;;;24.00;56.43
55604;BME280;41468;48.838;9.330;2022-08-01T06:28:28;98422.34;;;23.90;57.21
55604;BME280;41468;48.838;9.330;2022-08-01T06:30:57;98420.47;;;23.78;57.33
55604;BME280;41468;48.838;9.330;2022-08-01T06:33:28;98423.44;;;23.83;57.44
55604;BME280;41468;48.838;9.330;2022-08-01T06:36:00;98419.44;;;24.03;57.72
55604;BME280;41468;48.838;9.330;2022-08-01T06:38:30;98417.44;;;24.12;57.23
55604;BME280;41468;48.838;9.330;2022-08-01T06:41:00;98422.63;;;24.42;56.96
55604;BME280;41468;48.838;9.330;2022-08-01T06:43:30;98421.19;;;24.65;55.57
55604;BME280;41468;48.838;9.330;2022-08-01T06:46:00;98410.94;;;24.80;55.57
55604;BME280;41468;48.838;9.330;2022-08-01T06:48:29;98423.94;;;25.11;54.39
55604;BME280;41468;48.838;9.330;2022-08-01T06:51:02;98422.03;;;25.26;53.47
55604;BME280;41468;48.838;9.330;2022-08-01T06:53:40;98428.72;;;25.71;51.95
55604;BME280;41468;48.838;9.330;2022-08-01T06:56:10;98424.44;;;25.42;52.44
55604;BME280;41468;48.838;9.330;2022-08-01T06:58:40;98423.94;;;25.86;52.06
55604;BME280;41468;48.838;9.330;2022-08-01T07:01:10;98422.72;;;26.12;51.57
55604;BME280;41468;48.838;9.330;2022-08-01T07:03:40;98422.97;;;26.23;50.89
55604;BME280;41468;48.838;9.330;2022-08-01T07:06:23;98417.44;;;26.52;49.90
55604;BME280;41468;48.838;9.330;2022-08-01T07:08:53;98420.19;;;26.76;49.08
55604;BME280;41468;48.838;9.330;2022-08-01T07:11:29;98425.06;;;27.06;48.31
55604;BME280;41468;48.838;9.330;2022-08-01T07:13:59;98421.47;;;26.75;49.39
55604;BME280;41468;48.838;9.330;2022-08-01T07:16:29;98432.81;;;26.96;48.74
55604;BME280;41468;48.838;9.330;2022-08-01T07:18:59;98421.28;;;26.94;49.16
55604;BME280;41468;48.838;9.330;2022-08-01T07:21:31;98419.13;;;26.74;49.43
55604;BME280;41468;48.838;9.330;2022-08-01T07:24:07;98416.53;;;27.15;48.75
55604;BME280;41468;48.838;9.330;2022-08-01T07:26:40;98420.19;;;26.76;49.41
55604;BME280;41468;48.838;9.330;2022-08-01T07:29:21;98423.97;;;26.73;49.93
55604;BME280;41468;48.838;9.330;2022-08-01T07:31:50;98420.41;;;27.17;48.49
55604;BME280;41468;48.838;9.330;2022-08-01T07:34:20;98417.31;;;27.15;47.74
55604;BME280;41468;48.838;9.330;2022-08-01T07:36:53;98418.47;;;27.38;48.00
55604;BME280;41468;48.838;9.330;2022-08-01T07:39:23;98418.34;;;27.62;47.32
55604;BME280;41468;48.838;9.330;2022-08-01T07:41:53;98411.44;;;27.78;46.48
55604;BME280;41468;48.838;9.330;2022-08-01T07:44:33;98418.66;;;27.85;46.02
55604;BME280;41468;48.838;9.330;2022-08-01T07:47:04;98410.41;;;27.96;46.11
55604;BME280;41468;48.838;9.330;2022-08-01T07:49:34;98415.81;;;28.00;46.31
55604;BME280;41468;48.838;9.330;2022-08-01T07:52:09;98415.19;;;28.11;45.61
55604;BME280;41468;48.838;9.330;2022-08-01T07:54:39;98416.31;;;28.19;46.10
55604;BME280;41468;48.838;9.330;2022-08-01T07:57:09;98410.59;;;28.34;44.64
55604;BME280;41468;48.838;9.330;2022-08-01T07:59:38;98413.72;;;28.36;45.38
55604;BME280;41468;48.838;9.330;2022-08-01T08:02:08;98413.50;;;28.39;45.39
55604;BME280;41468;48.838;9.330;2022-08-01T08:04:38;98419.22;;;28.24;44.89
55604;BME280;41468;48.838;9.330;2022-08-01T08:07:17;98421.81;;;28.08;45.24
55604;BME280;41468;48.838;9.330;2022-08-01T08:09:46;98422.81;;;27.39;46.42
55604;BME280;41468;48.838;9.330;2022-08-01T08:12:17;98420.03;;;26.95;47.48
55604;BME280;41468;48.838;9.330;2022-08-01T08:14:55;98405.53;;;26.82;48.37
55604;BME280;41468;48.838;9.330;2022-08-01T08:17:25;98407.63;;;27.31;47.73
55604;BME280;41468;48.838;9.330;2022-08-01T08:20:02;98411.69;;;27.45;47.49
55604;BME280;41468;48.838;9.330;2022-08-01T08:22:37;98408.09;;;27.45;47.19
55604;BME280;41468;48.838;9.330;2022-08-01T08:25:08;98419.88;;;27.63;47.25
55604;BME280;41468;48.838;9.330;2022-08-01T08:27:38;98409.00;;;27.51;47.12
55604;BME280;41468;48.838;9.330;2022-08-01T08:30:08;98407.25;;;27.53;47.10
55604;BME280;41468;48.838;9.330;2022-08-01T08:32:39;98407.94;;;27.48;47.95
55604;BME280;41468;48.838;9.330;2022-08-01T08:35:10;98406.94;;;27.51;47.44
55604;BME280;41468;48.838;9.330;2022-08-01T08:37:51;98408.13;;;27.15;48.39
55604;BME280;41468;48.838;9.330;2022-08-01T08:40:29;98405.72;;;27.08;48.87
55604;BME280;41468;48.838;9.330;2022-08-01T08:42:59;98404.75;;;26.96;49.44
55604;BME280;41468;48.838;9.330;2022-08-01T08:45:30;98408.31;;;27.11;49.19
55604;BME280;41468;48.838;9.330;2022-08-01T08:48:21;98401.81;;;27.35;48.54
55604;BME280;41468;48.838;9.330;2022-08-01T08:50:53;98411.34;;;27.73;47.22
55604;BME280;41468;48.838;9.330;2022-08-01T08:53:27;98408.41;;;27.82;46.92
55604;BME280;41468;48.838;9.330;2022-08-01T08:56:01;98407.47;;;28.05;46.68
55604;BME280;41468;48.838;9.330;2022-08-01T08:58:31;98407.34;;;27.79;46.96
55604;BME280;41468;48.838;9.330;2022-08-01T09:01:05;98414.53;;;27.80;47.54
55604;BME280;41468;48.838;9.330;2022-08-01T09:03:36;98411.94;;;27.97;46.18
55604;BME280;41468;48.838;9.330;2022-08-01T09:06:07;98414.97;;;28.14;46.38
55604;BME280;41468;48.838;9.330;2022-08-01T09:08:39;98407.72;;;28.28;44.93
55604;BME280;41468;48.838;9.330;2022-08-01T09:11:09;98408.31;;;28.32;45.68
55604;BME280;41468;48.838;9.330;2022-08-01T09:14:02;98404.22;;;28.33;45.23
55604;BME280;41468;48.838;9.330;2022-08-01T09:16:32;98410.81;;;28.50;45.67
55604;BME280;41468;48.838;9.330;2022-08-01T09:19:13;98410.94;;;28.00;45.57
55604;BME280;41468;48.838;9.330;2022-08-01T09:22:06;98413.53;;;27.83;46.13
55604;BME280;41468;48.838;9.330;2022-08-01T09:24:39;98409.66;;;28.01;45.73
55604;BME280;41468;48.838;9.330;2022-08-01T09:27:17;98410.91;;;28.36;44.95
55604;BME280;41468;48.838;9.330;2022-08-01T09:29:48;98418.50;;;28.50;44.98
55604;BME280;41468;48.838;9.330;2022-08-01T09:32:28;98418.50;;;28.29;45.21
55604;BME280;41468;48.838;9.330;2022-08-01T09:35:22;98416.06;;;28.63;44.38
55604;BME280;41468;48.838;9.330;2022-08-01T09:38:14;98413.50;;;28.39;45.02
55604;BME280;41468;48.838;9.330;2022-08-01T09:40:50;98425.19;;;28.32;44.59
55604;BME280;41468;48.838;9.330;2022-08-01T09:43:24;98416.28;;;27.98;45.52
55604;BME280;41468;48.838;9.330;2022-08-01T09:45:57;98417.13;;;27.84;45.53
55604;BME280;41468;48.838;9.330;2022-08-01T09:48:27;98417.69;;;27.53;45.68
55604;BME280;41468;48.838;9.330;2022-08-01T09:50:58;98423.78;;;27.87;45.56
55604;BME280;41468;48.838;9.330;2022-08-01T09:53:43;98415.91;;;28.26;45.10
55604;BME280;41468;48.838;9.330;2022-08-01T09:56:21;98416.81;;;28.38;44.16
55604;BME280;41468;48.838;9.330;2022-08-01T09:58:54;98418.03;;;28.57;44.06
55604;BME280;41468;48.838;9.330;2022-08-01T10:01:27;98410.81;;;28.50;44.02
55604;BME280;41468;48.838;9.330;2022-08-01T10:04:06;98410.25;;;28.67;44.23
55604;BME280;41468;48.838;9.330;2022-08-01T10:06:37;98404.50;;;28.82;44.33
55604;BME280;41468;48.838;9.330;2022-08-01T10:09:10;98412.22;;;28.87;43.79
55604;BME280;41468;48.838;9.330;2022-08-01T10:11:43;98412.22;;;28.87;43.71
55604;BME280;41468;48.838;9.330;2022-08-01T10:14:14;98413.59;;;28.71;43.68
55604;BME280;41468;48.838;9.330;2022-08-01T10:16:47;98390.03;;;28.94;43.84
55604;BME280;41468;48.838;9.330;2022-08-01T10:19:28;98396.38;;;29.15;44.13
55604;BME280;41468;48.838;9.330;2022-08-01T10:22:01;98402.00;;;29.15;42.78
55604;BME280;41468;48.838;9.330;2022-08-01T10:24:31;98398.28;;;29.30;42.56
55604;BME280;41468;48.838;9.330;2022-08-01T10:27:08;98381.25;;;29.45;41.86
55604;BME280;41468;48.838;9.330;2022-08-01T10:29:45;98395.53;;;29.78;41.69
55604;BME280;41468;48.838;9.330;2022-08-01T10:32:33;98383.00;;;29.79;41.19
55604;BME280;41468;48.838;9.330;2022-08-01T10:35:06;98378.56;;;29.67;40.56
55604;BME280;41468;48.838;9.330;2022-08-01T10:37:41;98388.63;;;29.36;41.21
55604;BME280;41468;48.838;9.330;2022-08-01T10:40:18;98376.53;;;29.30;41.17
55604;BME280;41468;48.838;9.330;2022-08-01T10:43:00;98384.16;;;29.56;40.19
55604;BME280;41468;48.838;9.330;2022-08-01T10:45:30;98382.72;;;29.77;39.78
55604;BME280;41468;48.838;9.330;2022-08-01T10:48:05;98377.19;;;29.89;40.03
55604;BME280;41468;48.838;9.330;2022-08-01T10:50:40;98380.13;;;30.11;39.69
55604;BME280;41468;48.838;9.330;2022-08-01T10:53:16;98377.16;;;30.43;39.12
55604;BME280;41468;48.838;9.330;2022-08-01T10:56:01;98371.50;;;30.43;38.88
55604;BME280;41468;48.838;9.330;2022-08-01T10:58:37;98379.56;;;30.07;39.23
55604;BME280;41468;48.838;9.330;2022-08-01T11:01:18;98380.03;;;30.00;39.79
55604;BME280;41468;48.838;9.330;2022-08-01T11:04:06;98368.44;;;30.46;39.63
55604;BME280;41468;48.838;9.330;2022-08-01T11:06:53;98365.47;;;30.07;39.22
55604;BME280;41468;48.838;9.330;2022-08-01T11:09:38;98369.66;;;30.29;39.49
55604;BME280;41468;48.838;9.330;2022-08-01T11:12:13;98370.16;;;30.27;38.84
55604;BME280;41468;48.838;9.330;2022-08-01T11:15:21;98363.78;;;30.38;38.29
55604;BME280;41468;48.838;9.330;2022-08-01T11:18:01;98362.00;;;30.40;38.81
55604;BME280;41468;48.838;9.330;2022-08-01T11:20:33;98358.63;;;30.31;38.85
55604;BME280;41468;48.838;9.330;2022-08-01T11:23:18;98353.56;;;30.46;38.61
55604;BME280;41468;48.838;9.330;2022-08-01T11:26:19;98347.13;;;30.40;38.96
55604;BME280;41468;48.838;9.330;2022-08-01T11:29:11;98351.97;;;30.34;39.63
55604;BME280;41468;48.838;9.330;2022-08-01T11:31:50;98341.56;;;29.91;39.24
55604;BME280;41468;48.838;9.330;2022-08-01T11:34:53;98345.41;;;29.88;39.82
55604;BME280;41468;48.838;9.330;2022-08-01T11:37:24;98337.31;;;30.18;39.35
55604;BME280;41468;48.838;9.330;2022-08-01T11:40:15;98332.00;;;30.43;39.51
55604;BME280;41468;48.838;9.330;2022-08-01T11:42:45;98322.03;;;30.53;39.74
55604;BME280;41468;48.838;9.330;2022-08-01T11:45:15;98331.69;;;30.24;39.63
55604;BME280;41468;48.838;9.330;2022-08-01T11:47:49;98327.47;;;29.91;39.44
55604;BME280;41468;48.838;9.330;2022-08-01T11:50:33;98327.75;;;29.99;40.12
55604;BME280;41468;48.838;9.330;2022-08-01T11:53:05;98338.31;;;30.10;40.06
55604;BME280;41468;48.838;9.330;2022-08-01T11:55:44;98321.16;;;30.24;39.47
55604;BME280;41468;48.838;9.330;2022-08-01T11:58:21;98327.31;;;30.17;39.22
55604;BME280;41468;48.838;9.330;2022-08-01T12:00:57;98323.66;;;30.00;39.46
55604;BME280;41468;48.838;9.330;2022-08-01T12:03:31;98322.56;;;29.80;39.47
55604;BME280;41468;48.838;9.330;2022-08-01T12:06:02;98319.25;;;29.82;39.61
55604;BME280;41468;48.838;9.330;2022-08-01T12:08:33;98311.63;;;30.05;39.32
55604;BME280;41468;48.838;9.330;2022-08-01T12:11:04;98314.66;;;29.90;39.69
55604;BME280;41468;48.838;9.330;2022-08-01T12:13:41;98309.69;;;29.68;40.12
55604;BME280;41468;48.838;9.330;2022-08-01T12:16:12;98306.53;;;29.55;40.30
55604;BME280;41468;48.838;9.330;2022-08-01T12:18:44;98299.72;;;29.30;40.51
55604;BME280;41468;48.838;9.330;2022-08-01T12:21:14;98304.38;;;29.38;40.76
55604;BME280;41468;48.838;9.330;2022-08-01T12:23:45;98297.41;;;29.23;40.05
55604;BME280;41468;48.838;9.330;2022-08-01T12:26:39;98295.47;;;29.46;40.42
55604;BME280;41468;48.838;9.330;2022-08-01T12:29:09;98291.31;;;29.35;40.56
55604;BME280;41468;48.838;9.330;2022-08-01T12:31:39;98289.31;;;29.42;40.31
55604;BME280;41468;48.838;9.330;2022-08-01T12:34:29;98286.41;;;29.30;40.29
55604;BME280;41468;48.838;9.330;2022-08-01T12:37:01;98292.34;;;29.38;40.25
55604;BME280;41468;48.838;9.330;2022-08-01T12:39:32;98291.22;;;29.67;40.64
55604;BME280;41468;48.838;9.330;2022-08-01T12:42:06;98297.72;;;29.85;39.74
55604;BME280;41468;48.838;9.330;2022-08-01T12:44:38;98293.13;;;29.87;39.77
55604;BME280;41468;48.838;9.330;2022-08-01T12:47:08;98292.34;;;29.87;39.56
55604;BME280;41468;48.838;9.330;2022-08-01T12:49:43;98298.22;;;29.83;39.59
55604;BME280;41468;48.838;9.330;2022-08-01T12:52:14;98291.88;;;29.94;39.64
55604;BME280;41468;48.838;9.330;2022-08-01T12:55:03;98287.53;;;29.98;39.28
55604;BME280;41468;48.838;9.330;2022-08-01T12:57:37;98294.38;;;29.80;39.54
55604;BME280;41468;48.838;9.330;2022-08-01T13:00:19;98298.25;;;29.89;39.66
55604;BME280;41468;48.838;9.330;2022-08-01T13:02:50;98290.38;;;30.10;39.39
55604;BME280;41468;48.838;9.330;2022-08-01T13:05:24;98292.22;;;29.64;39.46
55604;BME280;41468;48.838;9.330;2022-08-01T13:07:54;98280.97;;;29.21;40.29
55604;BME280;41468;48.838;9.330;2022-08-01T13:10:26;98282.81;;;29.24;41.12
55604;BME280;41468;48.838;9.330;2022-08-01T13:12:57;98287.16;;;28.88;40.60
55604;BME280;41468;48.838;9.330;2022-08-01T13:15:29;98281.41;;;29.14;40.48
55604;BME280;41468;48.838;9.330;2022-08-01T13:18:22;98286.22;;;29.40;40.40
55604;BME280;41468;48.838;9.330;2022-08-01T13:21:12;98289.78;;;29.83;40.20
55604;BME280;41468;48.838;9.330;2022-08-01T13:24:00;98284.25;;;29.57;39.71
55604;BME280;41468;48.838;9.330;2022-08-01T13:26:44;98268.25;;;29.31;39.62
55604;BME280;41468;48.838;9.330;2022-08-01T13:29:16;98262.25;;;29.18;40.12
55604;BME280;41468;48.838;9.330;2022-08-01T13:31:47;98272.91;;;29.03;40.67
55604;BME280;41468;48.838;9.330;2022-08-01T13:34:17;98265.16;;;28.92;40.84
55604;BME280;41468;48.838;9.330;2022-08-01T13:36:49;98259.53;;;28.92;41.11
55604;BME280;41468;48.838;9.330;2022-08-01T13:39:20;98264.84;;;29.22;40.34